createdAt,value
2023-04-27T00:02:11.490Z,96345.81
2023-04-27T00:04:38.681Z,96343.66
2023-04-27T00:07:08.345Z,96343.03
2023-04-27T00:09:38.102Z,96339.84
2023-04-27T00:12:07.545Z,96346.31
2023-04-27T00:14:34.636Z,96344.97
2023-04-27T00:17:01.663Z,96348.00
2023-04-27T00:19:29.783Z,96343.00
2023-04-27T00:21:58.778Z,96341.41
2023-04-27T00:24:25.853Z,96340.59
2023-04-27T00:26:52.884Z,96337.41
2023-04-27T00:29:19.917Z,96336.59
2023-04-27T00:31:47.015Z,96334.22
2023-04-27T00:34:14.042Z,96338.41
2023-04-27T00:36:41.098Z,96331.63
2023-04-27T00:39:08.130Z,96335.00
2023-04-27T00:41:35.196Z,96332.41
2023-04-27T00:44:02.225Z,96337.63
2023-04-27T00:46:29.265Z,96338.63
2023-04-27T00:48:56.306Z,96336.25
2023-04-27T00:51:23.368Z,96334.84
2023-04-27T00:53:50.418Z,96338.50
2023-04-27T00:56:17.426Z,96329.88
2023-04-27T00:58:44.489Z,96332.69
2023-04-27T01:01:11.587Z,96334.53
2023-04-27T01:03:38.834Z,96328.47
2023-04-27T01:06:05.982Z,96320.06
2023-04-27T01:08:33.040Z,96329.72
2023-04-27T01:11:00.028Z,96328.34
2023-04-27T01:13:27.048Z,96328.56
2023-04-27T01:15:54.070Z,96319.13
2023-04-27T01:18:21.071Z,96314.72
2023-04-27T01:20:48.098Z,96312.09
2023-04-27T01:23:17.085Z,96308.66
2023-04-27T01:25:44.642Z,96312.09
2023-04-27T01:28:11.642Z,96307.88
2023-04-27T01:30:38.676Z,96311.28
2023-04-27T01:33:05.737Z,96315.72
2023-04-27T01:35:32.759Z,96314.13
2023-04-27T01:38:00.004Z,96320.56
2023-04-27T01:40:27.096Z,96309.53
2023-04-27T01:42:54.142Z,96318.41
2023-04-27T01:45:21.234Z,96314.19
2023-04-27T01:47:48.276Z,96319.41
2023-04-27T01:50:15.361Z,96325.44
2023-04-27T01:52:42.434Z,96325.44
2023-04-27T01:55:09.472Z,96325.66
2023-04-27T01:57:36.465Z,96324.63
2023-04-27T02:00:03.493Z,96328.28
2023-04-27T02:02:30.683Z,96328.47
2023-04-27T02:04:57.829Z,96325.28
2023-04-27T02:07:24.806Z,96334.16
2023-04-27T02:09:51.821Z,96327.91
2023-04-27T02:12:18.806Z,96331.53
2023-04-27T02:14:45.809Z,96335.94
2023-04-27T02:17:12.812Z,96331.53
2023-04-27T02:19:39.823Z,96329.94
2023-04-27T02:22:07.009Z,96338.34
2023-04-27T02:24:34.017Z,96342.78
2023-04-27T02:27:01.020Z,96340.75
2023-04-27T02:29:28.026Z,96333.13
2023-04-27T02:31:55.520Z,96334.72
2023-04-27T02:34:22.566Z,96339.13
2023-04-27T02:36:49.599Z,96342.56
2023-04-27T02:39:16.634Z,96334.72
2023-04-27T02:41:43.658Z,96334.72
2023-04-27T02:44:10.723Z,96334.72
2023-04-27T02:46:37.762Z,96333.91
2023-04-27T02:49:04.817Z,96339.94
2023-04-27T02:51:31.817Z,96340.16
2023-04-27T02:53:58.875Z,96341.16
2023-04-27T02:56:25.891Z,96335.34
2023-04-27T02:58:53.314Z,96345.81
2023-04-27T03:01:20.417Z,96342.41
2023-04-27T03:03:47.726Z,96339.00
2023-04-27T03:06:14.839Z,96339.00
2023-04-27T03:08:41.846Z,96339.00
2023-04-27T03:11:08.898Z,96336.38
2023-04-27T03:13:35.914Z,96344.22
2023-04-27T03:16:03.012Z,96341.81
2023-04-27T03:18:30.051Z,96340.22
2023-04-27T03:20:57.087Z,96338.63
2023-04-27T03:23:24.097Z,96344.84
2023-04-27T03:25:51.100Z,96344.06
2023-04-27T03:28:18.122Z,96345.09
2023-04-27T03:30:45.153Z,96353.13
2023-04-27T03:33:12.233Z,96351.50
2023-04-27T03:35:39.314Z,96356.97
2023-04-27T03:38:06.340Z,96367.41
2023-04-27T03:40:33.369Z,96353.78
2023-04-27T03:43:00.394Z,96361.00
2023-04-27T03:45:27.429Z,96356.81
2023-04-27T03:47:54.507Z,96357.00
2023-04-27T03:50:21.626Z,96365.00
2023-04-27T03:52:48.661Z,96364.44
2023-04-27T03:55:15.672Z,96362.06
2023-04-27T03:57:42.690Z,96370.88
2023-04-27T04:00:09.706Z,96374.72
2023-04-27T04:02:37.285Z,96379.16
2023-04-27T04:05:04.476Z,96384.78
2023-04-27T04:07:31.612Z,96385.78
2023-04-27T04:09:58.673Z,96383.41
2023-04-27T04:12:25.667Z,96388.25
2023-04-27T04:14:52.695Z,96384.47
2023-04-27T04:17:19.713Z,96382.84
2023-04-27T04:19:46.740Z,96390.09
2023-04-27T04:22:13.757Z,96388.72
2023-04-27T04:24:40.818Z,96391.72
2023-04-27T04:27:07.830Z,96397.19
2023-04-27T04:29:34.836Z,96393.16
2023-04-27T04:32:01.892Z,96396.00
2023-04-27T04:34:28.890Z,96412.88
2023-04-27T04:36:55.906Z,96406.06
2023-04-27T04:39:22.938Z,96409.91
2023-04-27T04:41:49.975Z,96415.31
2023-04-27T04:44:17.059Z,96412.91
2023-04-27T04:46:44.201Z,96413.13
2023-04-27T04:49:11.444Z,96408.94
2023-04-27T04:51:39.029Z,96413.56
2023-04-27T04:54:06.080Z,96411.16
2023-04-27T04:56:33.131Z,96405.94
2023-04-27T04:59:00.166Z,96402.75
2023-04-27T05:01:27.483Z,96406.13
2023-04-27T05:03:54.682Z,96404.56
2023-04-27T05:06:21.850Z,96406.34
2023-04-27T05:08:48.847Z,96413.16
2023-04-27T05:11:15.942Z,96403.72
2023-04-27T05:13:42.957Z,96406.94
2023-04-27T05:16:10.048Z,96404.56
2023-04-27T05:18:37.089Z,96405.13
2023-04-27T05:21:04.106Z,96404.13
2023-04-27T05:23:31.170Z,96410.94
2023-04-27T05:25:58.260Z,96410.50
2023-04-27T05:28:25.288Z,96415.53
2023-04-27T05:30:52.317Z,96411.47
2023-04-27T05:33:19.336Z,96409.47
2023-04-27T05:35:46.333Z,96414.84
2023-04-27T05:38:13.373Z,96424.81
2023-04-27T05:40:40.389Z,96422.09
2023-04-27T05:43:07.414Z,96422.22
2023-04-27T05:45:34.534Z,96428.06
2023-04-27T05:48:01.682Z,96431.06
2023-04-27T05:50:28.834Z,96439.28
2023-04-27T05:52:55.852Z,96431.81
2023-04-27T05:55:22.865Z,96427.97
2023-04-27T05:57:57.279Z,96430.09
2023-04-27T06:00:31.567Z,96433.81
2023-04-27T06:02:58.745Z,96432.53
2023-04-27T06:05:25.966Z,96435.44
2023-04-27T06:07:52.997Z,96439.53
2023-04-27T06:10:20.018Z,96442.88
2023-04-27T06:12:47.065Z,96444.34
2023-04-27T06:15:14.079Z,96448.66
2023-04-27T06:17:41.287Z,96447.72
2023-04-27T06:20:08.429Z,96442.34
2023-04-27T06:22:35.476Z,96446.63
2023-04-27T06:25:02.561Z,96444.88
2023-04-27T06:27:29.587Z,96446.72
2023-04-27T06:29:56.625Z,96444.16
2023-04-27T06:32:23.684Z,96454.66
2023-04-27T06:34:50.689Z,96451.25
2023-04-27T06:37:17.732Z,96455.47
2023-04-27T06:39:44.730Z,96461.22
2023-04-27T06:42:11.796Z,96461.34
2023-04-27T06:44:38.840Z,96458.03
2023-04-27T06:47:05.924Z,96448.06
2023-04-27T06:49:32.971Z,96455.94
2023-04-27T06:52:00.005Z,96459.38
2023-04-27T06:54:27.052Z,96456.19
2023-04-27T06:56:54.102Z,96458.81
2023-04-27T06:59:21.146Z,96464.06
2023-04-27T07:01:48.248Z,96458.81
2023-04-27T07:04:15.613Z,96462.78
2023-04-27T07:06:42.715Z,96462.56
2023-04-27T07:09:19.909Z,96471.53
2023-04-27T07:11:54.242Z,96464.75
2023-04-27T07:14:21.316Z,96464.06
2023-04-27T07:16:48.310Z,96470.16
2023-04-27T07:19:15.453Z,96460.50
2023-04-27T07:21:42.680Z,96466.41
2023-04-27T07:24:09.706Z,96467.25
2023-04-27T07:26:36.730Z,96467.06
2023-04-27T07:29:14.660Z,96457.16
2023-04-27T07:31:52.202Z,96453.28
2023-04-27T07:34:19.461Z,96453.13
2023-04-27T07:36:46.508Z,96457.94
2023-04-27T07:39:13.640Z,96460.16
2023-04-27T07:41:40.805Z,96458.94
2023-04-27T07:44:07.818Z,96458.50
2023-04-27T07:46:34.849Z,96458.81
2023-04-27T07:49:02.230Z,96462.84
2023-04-27T07:51:29.398Z,96458.19
2023-04-27T07:53:56.425Z,96467.25
2023-04-27T07:56:23.502Z,96461.75
2023-04-27T07:58:50.529Z,96469.19
2023-04-27T08:01:19.022Z,96471.38
2023-04-27T08:03:48.061Z,96464.59
2023-04-27T08:06:16.144Z,96478.91
2023-04-27T08:08:43.328Z,96473.97
2023-04-27T08:11:10.408Z,96479.59
2023-04-27T08:13:37.445Z,96480.72
2023-04-27T08:16:04.457Z,96481.56
2023-04-27T08:18:31.479Z,96480.03
2023-04-27T08:20:58.525Z,96480.88
2023-04-27T08:23:25.980Z,96482.53
2023-04-27T08:25:52.998Z,96479.16
2023-04-27T08:28:20.036Z,96472.31
2023-04-27T08:30:47.062Z,96481.59
2023-04-27T08:33:14.120Z,96480.84
2023-04-27T08:35:41.191Z,96490.44
2023-04-27T08:38:08.235Z,96488.84
2023-04-27T08:40:35.267Z,96487.59
2023-04-27T08:43:02.299Z,96475.16
2023-04-27T08:45:29.378Z,96475.16
2023-04-27T08:47:56.406Z,96481.28
2023-04-27T08:50:23.464Z,96476.53
2023-04-27T08:52:50.502Z,96479.69
2023-04-27T08:55:17.626Z,96476.53
2023-04-27T08:57:44.622Z,96486.84
2023-04-27T09:00:11.635Z,96484.44
2023-04-27T09:02:38.843Z,96483.88
2023-04-27T09:05:06.096Z,96478.53
2023-04-27T09:07:33.169Z,96477.97
2023-04-27T09:10:00.183Z,96486.66
2023-04-27T09:12:27.236Z,96484.75
2023-04-27T09:14:54.251Z,96483.59
2023-04-27T09:17:21.279Z,96491.19
2023-04-27T09:19:48.335Z,96486.56
2023-04-27T09:22:15.372Z,96493.91
2023-04-27T09:24:42.444Z,96491.13
2023-04-27T09:27:09.542Z,96483.56
2023-04-27T09:29:36.624Z,96483.94
2023-04-27T09:32:03.764Z,96484.88
2023-04-27T09:34:30.944Z,96484.44
2023-04-27T09:36:58.023Z,96486.94
2023-04-27T09:39:25.086Z,96478.00
2023-04-27T09:41:52.138Z,96464.53
2023-04-27T09:44:19.191Z,96474.44
2023-04-27T09:46:46.205Z,96475.34
2023-04-27T09:49:13.480Z,96465.84
2023-04-27T09:51:40.623Z,96463.28
2023-04-27T09:54:07.673Z,96466.00
2023-04-27T09:56:34.737Z,96464.94
2023-04-27T09:59:01.801Z,96458.59
2023-04-27T10:01:28.967Z,96449.53
2023-04-27T10:03:56.173Z,96447.72
2023-04-27T10:06:23.326Z,96447.13
2023-04-27T10:08:50.381Z,96441.81
2023-04-27T10:11:17.404Z,96439.91
2023-04-27T10:13:44.423Z,96437.25
2023-04-27T10:18:02.037Z,96450.94
2023-04-27T10:20:29.079Z,96443.81
2023-04-27T10:22:56.139Z,96447.38
2023-04-27T10:25:23.533Z,96442.94
2023-04-27T10:27:50.582Z,96440.72
2023-04-27T10:30:17.632Z,96437.69
2023-04-27T10:32:44.688Z,96437.72
2023-04-27T10:35:11.730Z,96441.19
2023-04-27T10:37:38.799Z,96437.97
2023-04-27T10:40:08.960Z,96431.53
2023-04-27T10:42:35.992Z,96441.44
2023-04-27T10:45:03.013Z,96437.16
2023-04-27T10:47:30.123Z,96423.91
2023-04-27T10:49:57.190Z,96435.09
2023-04-27T10:52:24.208Z,96429.44
2023-04-27T10:54:51.285Z,96426.06
2023-04-27T10:57:18.326Z,96424.91
2023-04-27T10:59:45.345Z,96423.31
2023-04-27T11:02:13.285Z,96412.41
2023-04-27T11:04:40.491Z,96414.91
2023-04-27T11:07:07.609Z,96417.41
2023-04-27T11:09:34.629Z,96414.13
2023-04-27T11:12:01.694Z,96413.66
2023-04-27T11:14:28.738Z,96415.50
2023-04-27T11:16:55.765Z,96415.88
2023-04-27T11:19:22.812Z,96412.31
2023-04-27T11:21:49.887Z,96413.31
2023-04-27T11:24:16.996Z,96419.78
2023-04-27T11:26:44.033Z,96416.69
2023-04-27T11:29:11.098Z,96413.81
2023-04-27T11:31:38.236Z,96415.13
2023-04-27T11:34:05.325Z,96416.25
2023-04-27T11:36:32.364Z,96420.66
2023-04-27T11:38:59.431Z,96416.84
2023-04-27T11:41:26.437Z,96424.84
2023-04-27T11:43:53.506Z,96418.72
2023-04-27T11:46:20.581Z,96424.19
2023-04-27T11:48:47.652Z,96418.22
2023-04-27T11:51:14.714Z,96410.03
2023-04-27T11:53:41.744Z,96411.72
2023-04-27T11:56:08.814Z,96413.53
2023-04-27T11:58:35.849Z,96410.78
2023-04-27T12:01:02.883Z,96414.97
2023-04-27T12:03:30.053Z,96423.25
2023-04-27T12:06:01.757Z,96422.72
2023-04-27T12:08:34.663Z,96425.44
2023-04-27T12:11:01.670Z,96416.25
2023-04-27T12:13:28.785Z,96415.00
2023-04-27T12:15:55.813Z,96413.72
2023-04-27T12:18:22.874Z,96412.47
2023-04-27T12:20:49.898Z,96418.88
2023-04-27T12:23:16.910Z,96410.38
2023-04-27T12:25:43.954Z,96409.31
2023-04-27T12:28:10.969Z,96410.88
2023-04-27T12:30:38.034Z,96413.06
2023-04-27T12:33:05.127Z,96410.09
2023-04-27T12:35:32.309Z,96415.44
2023-04-27T12:37:59.480Z,96410.88
2023-04-27T12:40:26.496Z,96406.16
2023-04-27T12:42:53.534Z,96409.31
2023-04-27T12:45:20.553Z,96406.94
2023-04-27T12:48:01.639Z,96405.34
2023-04-27T12:50:30.739Z,96410.38
2023-04-27T12:52:57.779Z,96411.16
2023-04-27T12:55:33.065Z,96402.38
2023-04-27T12:58:01.107Z,96399.41
2023-04-27T13:00:28.170Z,96405.25
2023-04-27T13:02:56.195Z,96403.06
2023-04-27T13:05:23.397Z,96388.94
2023-04-27T13:07:50.433Z,96399.47
2023-04-27T13:10:17.470Z,96388.78
2023-04-27T13:12:44.471Z,96387.38
2023-04-27T13:15:11.520Z,96389.44
2023-04-27T13:17:38.618Z,96385.69
2023-04-27T13:20:05.728Z,96389.66
2023-04-27T13:22:32.827Z,96389.66
2023-04-27T13:24:59.881Z,96395.47
2023-04-27T13:27:27.449Z,96388.25
2023-04-27T13:29:54.476Z,96386.56
2023-04-27T13:32:21.528Z,96386.72
2023-04-27T13:34:48.591Z,96382.34
2023-04-27T13:37:15.602Z,96387.56
2023-04-27T13:39:42.646Z,96386.16
2023-04-27T13:42:09.684Z,96382.09
2023-04-27T13:44:36.701Z,96381.19
2023-04-27T13:47:03.833Z,96382.75
2023-04-27T13:49:30.958Z,96376.00
2023-04-27T13:51:58.010Z,96372.53
2023-04-27T13:54:25.008Z,96362.59
2023-04-27T13:56:52.056Z,96368.06
2023-04-27T13:59:19.126Z,96370.75
2023-04-27T14:01:46.184Z,96376.88
2023-04-27T14:04:13.285Z,96382.38
2023-04-27T14:06:40.415Z,96376.44
2023-04-27T14:09:07.465Z,96367.94
2023-04-27T14:11:45.096Z,96365.09
2023-04-27T14:14:15.884Z,96361.66
2023-04-27T14:16:42.986Z,96359.28
2023-04-27T14:19:10.135Z,96367.59
2023-04-27T14:21:37.157Z,96363.34
2023-04-27T14:24:04.215Z,96356.59
2023-04-27T14:26:31.206Z,96354.41
2023-04-27T14:28:58.747Z,96351.56
2023-04-27T14:31:25.949Z,96352.97
2023-04-27T14:33:53.060Z,96352.69
2023-04-27T14:36:20.092Z,96350.97
2023-04-27T14:38:47.129Z,96349.06
2023-04-27T14:41:14.182Z,96351.25
2023-04-27T14:43:41.221Z,96353.63
2023-04-27T14:46:19.884Z,96362.13
2023-04-27T14:48:48.114Z,96353.94
2023-04-27T14:51:15.179Z,96358.50
2023-04-27T14:53:42.213Z,96357.53
2023-04-27T14:56:09.223Z,96354.22
2023-04-27T14:58:36.336Z,96356.69
2023-04-27T15:01:03.359Z,96355.91
2023-04-27T15:03:30.703Z,96360.63
2023-04-27T15:05:57.832Z,96356.88
2023-04-27T15:08:24.834Z,96357.53
2023-04-27T15:10:51.960Z,96356.13
2023-04-27T15:13:19.008Z,96359.75
2023-04-27T15:15:46.117Z,96367.47
2023-04-27T15:18:13.238Z,96363.38
2023-04-27T15:20:40.493Z,96356.97
2023-04-27T15:23:07.539Z,96370.03
2023-04-27T15:25:34.607Z,96359.00
2023-04-27T15:28:01.671Z,96367.00
2023-04-27T15:30:28.695Z,96361.69
2023-04-27T15:32:55.879Z,96364.03
2023-04-27T15:35:22.940Z,96363.25
2023-04-27T15:37:49.949Z,96358.22
2023-04-27T15:40:17.038Z,96355.56
2023-04-27T15:42:44.081Z,96352.41
2023-04-27T15:45:11.146Z,96353.66
2023-04-27T15:47:38.461Z,96346.75
2023-04-27T15:50:05.512Z,96338.75
2023-04-27T15:52:32.535Z,96339.53
2023-04-27T15:54:59.557Z,96347.53
2023-04-27T15:57:26.586Z,96341.59
2023-04-27T15:59:53.626Z,96346.94
2023-04-27T16:02:20.776Z,96352.75
2023-04-27T16:04:47.808Z,96338.59
2023-04-27T16:07:14.864Z,96341.75
2023-04-27T16:09:41.976Z,96345.22
2023-04-27T16:12:09.050Z,96343.63
2023-04-27T16:14:36.108Z,96344.41
2023-04-27T16:17:03.209Z,96342.06
2023-04-27T16:19:30.245Z,96340.47
2023-04-27T16:21:57.266Z,96330.44
2023-04-27T16:24:24.326Z,96324.44
2023-04-27T16:26:51.353Z,96328.97
2023-04-27T16:29:18.575Z,96323.78
2023-04-27T16:31:45.716Z,96330.34
2023-04-27T16:34:12.850Z,96320.28
2023-04-27T16:36:39.884Z,96322.34
2023-04-27T16:39:06.889Z,96326.16
2023-04-27T16:41:33.936Z,96319.91
2023-04-27T16:44:00.946Z,96322.78
2023-04-27T16:46:28.044Z,96330.34
2023-04-27T16:48:55.157Z,96324.91
2023-04-27T16:51:22.698Z,96323.22
2023-04-27T16:53:49.724Z,96316.59
2023-04-27T16:56:16.751Z,96328.72
2023-04-27T16:58:43.794Z,96325.41
2023-04-27T17:01:10.855Z,96317.88
2023-04-27T17:03:38.112Z,96316.94
2023-04-27T17:06:05.282Z,96310.13
2023-04-27T17:08:32.310Z,96317.84
2023-04-27T17:10:59.332Z,96317.47
2023-04-27T17:13:26.389Z,96314.00
2023-04-27T17:15:53.477Z,96308.59
2023-04-27T17:18:20.532Z,96312.84
2023-04-27T17:20:47.580Z,96311.25
2023-04-27T17:23:14.653Z,96317.53
2023-04-27T17:25:41.664Z,96319.09
2023-04-27T17:28:08.687Z,96316.28
2023-04-27T17:30:35.726Z,96311.75
2023-04-27T17:33:02.859Z,96319.00
2023-04-27T17:35:29.952Z,96319.66
2023-04-27T17:37:57.006Z,96313.53
2023-04-27T17:40:24.039Z,96322.22
2023-04-27T17:42:51.095Z,96318.81
2023-04-27T17:45:18.171Z,96319.13
2023-04-27T17:47:45.307Z,96313.00
2023-04-27T17:50:12.418Z,96328.22
2023-04-27T17:52:39.409Z,96317.84
2023-04-27T17:55:06.951Z,96315.19
2023-04-27T17:57:33.995Z,96312.84
2023-04-27T18:00:01.046Z,96313.16
2023-04-27T18:02:28.169Z,96316.09
2023-04-27T18:04:55.345Z,96312.97
2023-04-27T18:07:22.392Z,96315.25
2023-04-27T18:09:49.407Z,96322.78
2023-04-27T18:12:16.472Z,96328.13
2023-04-27T18:14:43.506Z,96323.03
2023-04-27T18:17:10.565Z,96315.31
2023-04-27T18:19:37.644Z,96312.94
2023-04-27T18:22:04.659Z,96318.25
2023-04-27T18:24:31.753Z,96320.81
2023-04-27T18:26:58.771Z,96327.22
2023-04-27T18:29:25.832Z,96327.47
2023-04-27T18:31:52.908Z,96324.28
2023-04-27T18:34:19.961Z,96331.13
2023-04-27T18:36:47.977Z,96327.13
2023-04-27T18:39:16.148Z,96330.81
2023-04-27T18:41:43.537Z,96334.53
2023-04-27T18:44:10.557Z,96328.63
2023-04-27T18:46:37.587Z,96329.13
2023-04-27T18:49:04.604Z,96322.16
2023-04-27T18:51:31.660Z,96331.16
2023-04-27T18:53:58.703Z,96334.03
2023-04-27T18:56:25.737Z,96338.03
2023-04-27T18:58:52.769Z,96341.69
2023-04-27T19:01:19.834Z,96341.81
2023-04-27T19:03:47.014Z,96350.03
2023-04-27T19:06:14.127Z,96354.75
2023-04-27T19:08:41.180Z,96349.63
2023-04-27T19:11:08.221Z,96349.81
2023-04-27T19:13:35.276Z,96340.13
2023-04-27T19:16:02.321Z,96349.38
2023-04-27T19:18:29.436Z,96343.69
2023-04-27T19:20:56.502Z,96348.09
2023-04-27T19:23:23.540Z,96346.38
2023-04-27T19:25:50.696Z,96342.81
2023-04-27T19:28:18.840Z,96349.09
2023-04-27T19:30:45.935Z,96347.63
2023-04-27T19:33:13.042Z,96347.00
2023-04-27T19:35:40.097Z,96356.69
2023-04-27T19:38:07.151Z,96353.91
2023-04-27T19:40:34.198Z,96356.34
2023-04-27T19:43:01.204Z,96349.63
2023-04-27T19:45:28.232Z,96346.28
2023-04-27T19:47:55.318Z,96342.38
2023-04-27T19:50:22.373Z,96340.63
2023-04-27T19:52:49.459Z,96346.06
2023-04-27T19:55:16.532Z,96351.22
2023-04-27T19:57:43.606Z,96347.84
2023-04-27T20:00:11.060Z,96349.25
2023-04-27T20:02:38.363Z,96351.72
2023-04-27T20:05:05.585Z,96349.66
2023-04-27T20:07:33.006Z,96344.47
2023-04-27T20:10:00.098Z,96345.84
2023-04-27T20:12:47.355Z,96348.03
2023-04-27T20:15:14.151Z,96342.53
2023-04-27T20:17:41.199Z,96344.19
2023-04-27T20:20:08.214Z,96341.34
2023-04-27T20:22:35.254Z,96335.84
2023-04-27T20:25:02.336Z,96341.44
2023-04-27T20:27:29.357Z,96340.44
2023-04-27T20:29:56.628Z,96343.66
2023-04-27T20:32:23.645Z,96336.78
2023-04-27T20:34:50.673Z,96336.31
2023-04-27T20:37:17.710Z,96333.16
2023-04-27T20:39:44.769Z,96332.69
2023-04-27T20:42:11.830Z,96337.22
2023-04-27T20:44:38.879Z,96343.59
2023-04-27T20:47:05.926Z,96348.38
2023-04-27T20:49:35.323Z,96345.22
2023-04-27T20:52:02.818Z,96344.75
2023-04-27T20:54:29.863Z,96335.75
2023-04-27T20:56:56.933Z,96340.53
2023-04-27T20:59:23.995Z,96333.66
2023-04-27T21:01:51.027Z,96330.22
2023-04-27T21:04:18.244Z,96329.44
2023-04-27T21:06:45.537Z,96318.09
2023-04-27T21:09:12.581Z,96328.16
2023-04-27T21:11:39.598Z,96319.44
2023-04-27T21:14:06.658Z,96321.31
2023-04-27T21:16:34.064Z,96327.41
2023-04-27T21:19:01.143Z,96323.19
2023-04-27T21:21:28.224Z,96317.09
2023-04-27T21:24:04.521Z,96326.63
2023-04-27T21:26:35.096Z,96312.09
2023-04-27T21:29:02.114Z,96311.03
2023-04-27T21:31:29.238Z,96311.59
2023-04-27T21:33:56.378Z,96314.22
2023-04-27T21:36:23.405Z,96309.72
2023-04-27T21:38:50.425Z,96310.50
2023-04-27T21:41:17.514Z,96312.09
2023-04-27T21:43:44.583Z,96314.47
2023-04-27T21:46:11.620Z,96309.94
2023-04-27T21:48:38.650Z,96309.69
2023-04-27T21:51:05.762Z,96310.47
2023-04-27T21:53:32.786Z,96314.72
2023-04-27T21:55:59.841Z,96313.13
2023-04-27T21:58:26.922Z,96309.41
2023-04-27T22:00:54.282Z,96307.53
2023-04-27T22:03:21.592Z,96305.69
2023-04-27T22:05:49.055Z,96309.91
2023-04-27T22:08:16.376Z,96308.06
2023-04-27T22:10:43.422Z,96309.13
2023-04-27T22:13:18.895Z,96305.66
2023-04-27T22:15:46.652Z,96300.09
2023-04-27T22:18:13.746Z,96314.09
2023-04-27T22:20:40.801Z,96308.53
2023-04-27T22:23:07.869Z,96306.69
2023-04-27T22:25:34.905Z,96309.03
2023-04-27T22:28:02.034Z,96302.94
2023-04-27T22:30:29.051Z,96304.53
2023-04-27T22:32:56.193Z,96297.91
2023-04-27T22:35:27.255Z,96300.53
2023-04-27T22:37:55.058Z,96307.38
2023-04-27T22:40:22.149Z,96306.31
2023-04-27T22:42:49.172Z,96300.72
2023-04-27T22:45:16.216Z,96297.78
2023-04-27T22:47:43.306Z,96290.66
2023-04-27T22:50:10.389Z,96291.44
2023-04-27T22:52:37.427Z,96295.63
2023-04-27T22:55:04.499Z,96288.22
2023-04-27T22:57:31.560Z,96288.72
2023-04-27T22:59:58.581Z,96284.78
2023-04-27T23:02:25.691Z,96286.34
2023-04-27T23:04:52.802Z,96287.66
2023-04-27T23:07:19.826Z,96285.50
2023-04-27T23:09:46.876Z,96281.81
2023-04-27T23:12:13.935Z,96277.84
2023-04-27T23:14:41.017Z,96284.41
2023-04-27T23:17:08.102Z,96286.53
2023-04-27T23:19:35.155Z,96279.13
2023-04-27T23:22:02.232Z,96285.44
2023-04-27T23:24:29.283Z,96284.09
2023-04-27T23:26:56.297Z,96278.53
2023-04-27T23:29:23.381Z,96280.38
2023-04-27T23:31:50.399Z,96274.56
2023-04-27T23:34:17.700Z,96276.66
2023-04-27T23:36:44.999Z,96274.28
2023-04-27T23:39:12.012Z,96282.47
2023-04-27T23:41:39.023Z,96275.59
2023-04-27T23:44:06.089Z,96282.16
2023-04-27T23:46:33.115Z,96282.41
2023-04-27T23:49:00.125Z,96274.75
2023-04-27T23:51:27.206Z,96266.31
2023-04-27T23:53:54.258Z,96271.03
2023-04-27T23:56:21.289Z,96257.09
2023-04-27T23:58:48.339Z,96259.97
